createdAt,value
2018-01-18T00:02:12.150Z,32.90
2018-01-18T00:04:40.210Z,32.80
2018-01-18T00:07:08.248Z,33.00
2018-01-18T00:09:36.252Z,32.70
2018-01-18T00:12:04.300Z,32.60
2018-01-18T00:14:32.356Z,32.50
2018-01-18T00:17:00.402Z,32.50
2018-01-18T00:19:28.440Z,32.50
2018-01-18T00:21:56.477Z,32.40
2018-01-18T00:24:24.572Z,32.40
2018-01-18T00:26:52.607Z,32.30
2018-01-18T00:29:20.688Z,32.20
2018-01-18T00:31:48.732Z,32.20
2018-01-18T00:34:16.779Z,32.20
2018-01-18T00:36:45.560Z,32.20
2018-01-18T00:39:14.387Z,32.10
2018-01-18T00:41:42.404Z,32.20
2018-01-18T00:44:10.459Z,32.20
2018-01-18T00:46:38.496Z,32.20
2018-01-18T00:49:06.566Z,32.20
2018-01-18T00:51:34.620Z,32.20
2018-01-18T00:54:03.415Z,32.20
2018-01-18T00:56:31.422Z,32.20
2018-01-18T00:58:59.461Z,32.20
2018-01-18T01:01:27.485Z,32.20
2018-01-18T01:03:55.539Z,32.20
2018-01-18T01:06:23.563Z,32.20
2018-01-18T01:08:51.580Z,32.20
2018-01-18T01:11:19.621Z,32.20
2018-01-18T01:13:47.672Z,32.20
2018-01-18T01:16:15.704Z,32.20
2018-01-18T01:18:43.720Z,32.10
2018-01-18T01:21:11.772Z,32.10
2018-01-18T01:23:40.517Z,32.00
2018-01-18T01:26:09.284Z,31.90
2018-01-18T01:28:37.308Z,31.90
2018-01-18T01:31:05.313Z,31.90
2018-01-18T01:33:33.336Z,31.90
2018-01-18T01:36:01.349Z,31.90
2018-01-18T01:38:29.400Z,31.80
2018-01-18T01:40:58.165Z,31.70
2018-01-18T01:43:26.175Z,31.70
2018-01-18T01:45:54.188Z,31.70
2018-01-18T01:48:34.233Z,31.60
2018-01-18T01:51:02.251Z,32.20
2018-01-18T01:53:31.061Z,31.60
2018-01-18T01:55:59.112Z,31.60
2018-01-18T01:58:27.889Z,31.50
2018-01-18T02:00:56.681Z,31.60
2018-01-18T02:03:25.503Z,31.60
2018-01-18T02:05:53.559Z,31.50
2018-01-18T02:08:21.568Z,31.50
2018-01-18T02:10:49.569Z,31.50
2018-01-18T02:13:17.586Z,31.60
2018-01-18T02:15:45.601Z,31.50
2018-01-18T02:18:13.631Z,31.50
2018-01-18T02:20:41.648Z,31.50
2018-01-18T02:23:10.430Z,32.00
2018-01-18T02:25:38.504Z,31.50
2018-01-18T02:28:06.589Z,31.50
2018-01-18T02:30:35.424Z,31.40
2018-01-18T02:33:03.444Z,31.40
2018-01-18T02:35:32.263Z,31.40
2018-01-18T02:38:00.276Z,31.40
2018-01-18T02:40:28.340Z,31.30
2018-01-18T02:42:56.379Z,31.20
2018-01-18T02:45:24.428Z,31.20
2018-01-18T02:47:52.497Z,31.10
2018-01-18T02:50:21.253Z,31.10
2018-01-18T02:52:49.306Z,31.10
2018-01-18T02:55:17.361Z,31.10
2018-01-18T02:57:45.377Z,31.10
2018-01-18T03:00:13.392Z,31.10
2018-01-18T03:02:41.524Z,31.00
2018-01-18T03:05:10.330Z,31.00
2018-01-18T03:07:38.440Z,31.00
2018-01-18T03:10:06.465Z,30.90
2018-01-18T03:12:35.252Z,30.80
2018-01-18T03:15:04.141Z,30.80
2018-01-18T03:17:32.950Z,30.90
2018-01-18T03:20:00.971Z,30.90
2018-01-18T03:22:29.079Z,30.90
2018-01-18T03:24:57.125Z,30.90
2018-01-18T03:27:25.177Z,30.90
2018-01-18T03:29:53.219Z,31.50
2018-01-18T03:32:21.216Z,30.90
2018-01-18T03:34:49.226Z,30.70
2018-01-18T03:37:18.013Z,30.70
2018-01-18T03:39:46.829Z,30.70
2018-01-18T03:42:14.819Z,30.70
2018-01-18T03:44:42.876Z,30.60
2018-01-18T03:47:10.881Z,30.60
2018-01-18T03:49:38.942Z,30.70
2018-01-18T03:52:06.980Z,30.60
2018-01-18T03:54:34.988Z,31.20
2018-01-18T03:57:03.036Z,30.60
2018-01-18T03:59:31.064Z,30.60
2018-01-18T04:01:59.841Z,30.50
2018-01-18T04:04:28.634Z,30.50
2018-01-18T04:06:57.430Z,30.50
2018-01-18T04:09:26.264Z,30.40
2018-01-18T04:11:54.256Z,30.50
2018-01-18T04:14:22.304Z,30.40
2018-01-18T04:16:50.334Z,30.40
2018-01-18T04:19:18.365Z,30.30
2018-01-18T04:21:46.365Z,30.30
2018-01-18T04:24:15.184Z,30.30
2018-01-18T04:26:43.236Z,30.30
2018-01-18T04:29:11.276Z,30.30
2018-01-18T04:31:39.308Z,30.20
2018-01-18T04:34:07.316Z,30.20
2018-01-18T04:36:35.324Z,30.20
2018-01-18T04:39:03.405Z,30.20
2018-01-18T04:41:31.483Z,30.20
2018-01-18T04:43:59.510Z,30.20
2018-01-18T04:46:28.334Z,30.20
2018-01-18T04:48:56.357Z,30.20
2018-01-18T04:51:25.187Z,30.30
2018-01-18T04:53:53.239Z,30.30
2018-01-18T04:56:22.014Z,30.30
2018-01-18T04:58:50.799Z,30.30
2018-01-18T05:01:19.571Z,30.30
2018-01-18T05:03:47.602Z,30.20
2018-01-18T05:06:15.718Z,30.20
2018-01-18T05:08:43.737Z,30.30
2018-01-18T05:11:11.741Z,30.20
2018-01-18T05:13:39.731Z,30.20
2018-01-18T05:16:07.730Z,30.10
2018-01-18T05:18:35.750Z,30.10
2018-01-18T05:21:03.772Z,30.10
2018-01-18T05:23:31.785Z,30.10
2018-01-18T05:25:59.790Z,30.10
2018-01-18T05:28:28.733Z,30.20
2018-01-18T05:30:56.779Z,30.30
2018-01-18T05:33:24.805Z,30.20
2018-01-18T05:35:52.870Z,30.20
2018-01-18T05:38:20.928Z,30.20
2018-01-18T05:40:48.928Z,30.10
2018-01-18T05:43:17.717Z,30.00
2018-01-18T05:45:46.515Z,30.00
2018-01-18T05:48:15.299Z,29.90
2018-01-18T05:50:44.079Z,29.90
2018-01-18T05:53:12.857Z,29.90
2018-01-18T05:55:40.920Z,29.90
2018-01-18T05:58:08.928Z,29.90
2018-01-18T06:00:37.075Z,29.90
2018-01-18T06:03:05.145Z,29.90
2018-01-18T06:05:33.154Z,29.90
2018-01-18T06:08:01.185Z,29.90
2018-01-18T06:10:29.213Z,29.80
2018-01-18T06:12:57.253Z,29.90
2018-01-18T06:15:25.241Z,29.80
2018-01-18T06:17:53.284Z,29.90
2018-01-18T06:20:22.119Z,29.80
2018-01-18T06:22:50.155Z,29.90
2018-01-18T06:25:18.195Z,29.80
2018-01-18T06:27:46.225Z,29.90
2018-01-18T06:30:14.225Z,29.80
2018-01-18T06:32:42.219Z,29.80
2018-01-18T06:35:10.998Z,29.80
2018-01-18T06:37:39.834Z,29.80
2018-01-18T06:40:07.860Z,29.80
2018-01-18T06:42:36.638Z,29.80
2018-01-18T06:45:04.675Z,29.70
2018-01-18T06:47:32.695Z,29.70
2018-01-18T06:50:01.483Z,29.60
2018-01-18T06:52:30.297Z,29.60
2018-01-18T06:54:58.324Z,29.50
2018-01-18T06:57:26.320Z,29.50
2018-01-18T06:59:54.335Z,29.50
2018-01-18T07:02:22.341Z,29.40
2018-01-18T07:04:51.145Z,29.40
2018-01-18T07:07:19.174Z,29.40
2018-01-18T07:09:47.204Z,29.30
2018-01-18T07:12:15.239Z,29.30
2018-01-18T07:14:44.071Z,29.40
2018-01-18T07:17:12.093Z,29.30
2018-01-18T07:19:40.148Z,29.30
2018-01-18T07:22:08.145Z,29.30
2018-01-18T07:24:36.965Z,29.30
2018-01-18T07:27:05.024Z,29.30
2018-01-18T07:29:33.075Z,29.30
2018-01-18T07:32:01.880Z,29.20
2018-01-18T07:34:29.908Z,29.20
2018-01-18T07:36:57.924Z,29.20
2018-01-18T07:39:25.947Z,29.20
2018-01-18T07:41:54.032Z,29.20
2018-01-18T07:44:22.093Z,29.20
2018-01-18T07:46:50.111Z,29.30
2018-01-18T07:49:18.133Z,29.20
2018-01-18T07:51:46.169Z,29.20
2018-01-18T07:54:14.228Z,29.20
2018-01-18T07:56:42.276Z,29.20
2018-01-18T07:59:10.300Z,29.20
2018-01-18T08:01:38.328Z,29.20
2018-01-18T08:04:12.248Z,29.20
2018-01-18T08:06:40.323Z,29.30
2018-01-18T08:09:08.446Z,29.30
2018-01-18T08:11:36.528Z,29.30
2018-01-18T08:14:05.345Z,29.50
2018-01-18T08:16:33.400Z,29.50
2018-01-18T08:19:01.432Z,29.60
2018-01-18T08:21:30.185Z,29.60
2018-01-18T08:23:58.241Z,29.60
2018-01-18T08:26:26.260Z,29.60
2018-01-18T08:28:54.307Z,29.60
2018-01-18T08:31:22.368Z,29.60
2018-01-18T08:33:50.396Z,29.70
2018-01-18T08:36:19.165Z,29.80
2018-01-18T08:38:47.208Z,29.80
2018-01-18T08:41:15.257Z,29.90
2018-01-18T08:43:43.285Z,29.90
2018-01-18T08:46:12.072Z,30.20
2018-01-18T08:48:40.175Z,30.20
2018-01-18T08:51:08.199Z,30.40
2018-01-18T08:53:36.232Z,30.60
2018-01-18T08:56:04.320Z,30.80
2018-01-18T08:58:32.381Z,31.00
2018-01-18T09:01:00.413Z,31.10
2018-01-18T09:03:29.206Z,31.40
2018-01-18T09:05:57.252Z,31.40
2018-01-18T09:08:25.297Z,31.50
2018-01-18T09:10:53.321Z,31.60
2018-01-18T09:13:21.368Z,31.70
2018-01-18T09:15:50.184Z,31.90
2018-01-18T09:18:18.225Z,31.80
2018-01-18T09:20:47.030Z,32.10
2018-01-18T09:23:15.828Z,32.10
2018-01-18T09:25:44.115Z,32.00
2018-01-18T09:28:12.184Z,32.10
2018-01-18T09:30:40.235Z,32.20
2018-01-18T09:33:08.319Z,32.30
2018-01-18T09:35:36.411Z,32.40
2018-01-18T09:38:04.440Z,32.40
2018-01-18T09:40:33.219Z,32.70
2018-01-18T09:43:02.041Z,32.70
2018-01-18T09:45:30.076Z,32.70
2018-01-18T09:47:58.121Z,32.80
2018-01-18T09:50:26.179Z,32.90
2018-01-18T09:52:54.240Z,33.00
2018-01-18T09:55:22.285Z,33.10
2018-01-18T09:57:50.344Z,33.10
2018-01-18T10:00:19.156Z,32.30
2018-01-18T10:02:47.185Z,33.10
2018-01-18T10:05:15.980Z,32.20
2018-01-18T10:07:44.784Z,32.40
2018-01-18T10:10:12.835Z,32.40
2018-01-18T10:12:41.661Z,32.40
2018-01-18T10:15:09.730Z,32.40
2018-01-18T10:17:37.787Z,32.40
2018-01-18T10:20:05.824Z,32.30
2018-01-18T10:22:33.852Z,32.20
2018-01-18T10:25:01.920Z,32.10
2018-01-18T10:27:30.028Z,32.10
2018-01-18T10:29:58.071Z,32.10
2018-01-18T10:32:26.104Z,32.10
2018-01-18T10:34:55.015Z,31.90
2018-01-18T10:37:23.142Z,32.00
2018-01-18T10:39:51.272Z,31.90
2018-01-18T10:42:19.419Z,32.00
2018-01-18T10:44:47.469Z,32.00
2018-01-18T10:47:15.527Z,32.00
2018-01-18T10:49:43.560Z,32.70
2018-01-18T10:52:11.591Z,32.10
2018-01-18T10:54:40.435Z,32.10
2018-01-18T10:57:08.487Z,32.10
2018-01-18T10:59:36.512Z,32.00
2018-01-18T11:02:04.571Z,32.00
2018-01-18T11:04:32.739Z,32.10
2018-01-18T11:07:00.775Z,32.00
2018-01-18T11:09:28.840Z,32.00
2018-01-18T11:11:56.886Z,31.90
2018-01-18T11:14:24.947Z,31.90
2018-01-18T11:16:54.160Z,31.60
2018-01-18T11:19:22.201Z,31.60
2018-01-18T11:21:50.239Z,31.60
2018-01-18T11:24:18.311Z,31.40
2018-01-18T11:26:46.371Z,31.30
2018-01-18T11:29:14.398Z,31.30
2018-01-18T11:31:43.220Z,31.20
2018-01-18T11:34:11.244Z,31.20
2018-01-18T11:36:39.297Z,31.30
2018-01-18T11:39:07.344Z,31.30
2018-01-18T11:41:35.379Z,31.20
2018-01-18T11:44:03.411Z,31.10
2018-01-18T11:46:31.433Z,31.20
2018-01-18T11:48:59.453Z,31.00
2018-01-18T11:51:27.480Z,31.10
2018-01-18T11:53:55.515Z,31.00
2018-01-18T11:56:24.312Z,31.00
2018-01-18T11:58:53.113Z,31.00
2018-01-18T12:01:21.166Z,31.00
2018-01-18T12:03:49.962Z,30.90
2018-01-18T12:06:18.746Z,31.00
2018-01-18T12:08:47.532Z,31.10
2018-01-18T12:11:16.329Z,31.00
2018-01-18T12:13:44.361Z,31.00
2018-01-18T12:16:12.423Z,31.10
2018-01-18T12:18:40.495Z,31.10
2018-01-18T12:21:08.548Z,31.10
2018-01-18T12:23:36.578Z,31.10
2018-01-18T12:26:05.441Z,31.00
2018-01-18T12:28:33.471Z,31.00
2018-01-18T12:31:01.508Z,31.00
2018-01-18T12:33:30.305Z,31.10
2018-01-18T12:35:58.359Z,31.20
2018-01-18T12:38:27.164Z,31.30
2018-01-18T12:40:55.189Z,31.30
2018-01-18T12:43:23.244Z,31.20
2018-01-18T12:45:51.315Z,31.30
2018-01-18T12:48:19.356Z,31.30
2018-01-18T12:50:47.364Z,31.30
2018-01-18T12:53:15.424Z,31.40
2018-01-18T12:55:43.450Z,31.40
2018-01-18T12:58:12.257Z,31.40
2018-01-18T13:00:40.335Z,31.40
2018-01-18T13:03:08.385Z,31.30
2018-01-18T13:05:36.400Z,31.20
2018-01-18T13:08:04.456Z,31.20
2018-01-18T13:10:32.506Z,31.10
2018-01-18T13:13:00.538Z,30.90
2018-01-18T13:15:28.609Z,30.80
2018-01-18T13:17:56.678Z,31.20
2018-01-18T13:20:24.705Z,30.40
2018-01-18T13:22:52.733Z,30.30
2018-01-18T13:25:21.559Z,30.20
2018-01-18T13:27:49.967Z,30.20
2018-01-18T13:30:18.023Z,30.10
2018-01-18T13:32:46.065Z,30.00
2018-01-18T13:35:14.181Z,29.90
2018-01-18T13:37:42.267Z,30.30
2018-01-18T13:40:10.371Z,29.80
2018-01-18T13:42:39.192Z,29.70
2018-01-18T13:45:07.220Z,29.70
2018-01-18T13:47:36.037Z,29.60
2018-01-18T13:50:04.104Z,29.60
2018-01-18T13:52:32.144Z,29.40
2018-01-18T13:55:00.956Z,29.40
2018-01-18T13:57:28.997Z,29.40
2018-01-18T13:59:57.058Z,29.30
2018-01-18T14:02:25.088Z,29.80
2018-01-18T14:04:53.134Z,29.40
2018-01-18T14:07:21.194Z,29.40
2018-01-18T14:09:49.319Z,29.40
2018-01-18T14:12:17.372Z,29.40
2018-01-18T14:14:45.420Z,29.30
2018-01-18T14:17:13.458Z,29.40
2018-01-18T14:19:41.512Z,29.30
2018-01-18T14:22:09.546Z,29.30
2018-01-18T14:24:37.580Z,29.30
2018-01-18T14:27:06.483Z,29.30
2018-01-18T14:29:35.281Z,29.20
2018-01-18T14:32:03.361Z,29.20
2018-01-18T14:34:31.385Z,29.10
2018-01-18T14:36:59.481Z,29.20
2018-01-18T14:39:28.277Z,29.30
2018-01-18T14:41:56.324Z,29.30
2018-01-18T14:44:24.335Z,29.30
2018-01-18T14:46:52.388Z,29.40
2018-01-18T14:49:22.174Z,29.50
2018-01-18T14:51:50.372Z,29.50
2018-01-18T14:54:19.194Z,29.70
2018-01-18T14:56:47.236Z,29.70
2018-01-18T14:59:15.299Z,29.80
2018-01-18T15:01:44.188Z,29.90
2018-01-18T15:04:12.989Z,29.90
2018-01-18T15:06:41.038Z,29.90
2018-01-18T15:09:09.845Z,30.00
2018-01-18T15:11:37.887Z,30.00
2018-01-18T15:14:05.898Z,30.00
2018-01-18T15:16:33.948Z,30.10
2018-01-18T15:19:02.753Z,30.10
2018-01-18T15:21:30.772Z,30.10
2018-01-18T15:23:58.824Z,30.20
2018-01-18T15:26:26.878Z,30.20
2018-01-18T15:28:54.903Z,30.30
2018-01-18T15:31:23.758Z,30.50
2018-01-18T15:33:51.811Z,30.50
2018-01-18T15:36:19.855Z,30.50
2018-01-18T15:38:47.919Z,30.60
2018-01-18T15:41:16.713Z,30.80
2018-01-18T15:43:44.797Z,30.70
2018-01-18T15:46:12.840Z,30.80
2018-01-18T15:48:41.633Z,31.00
2018-01-18T15:51:10.448Z,31.10
2018-01-18T15:53:38.485Z,31.10
2018-01-18T15:56:07.340Z,31.20
2018-01-18T15:58:35.361Z,31.20
2018-01-18T16:01:03.433Z,31.20
2018-01-18T16:03:31.504Z,31.30
2018-01-18T16:05:59.548Z,31.50
2018-01-18T16:08:27.640Z,31.50
2018-01-18T16:10:56.429Z,31.60
2018-01-18T16:13:24.464Z,31.60
2018-01-18T16:15:52.538Z,31.80
2018-01-18T16:18:20.619Z,31.90
2018-01-18T16:20:48.711Z,31.80
2018-01-18T16:23:16.798Z,31.80
2018-01-18T16:25:44.851Z,32.30
2018-01-18T16:28:13.660Z,31.80
2018-01-18T16:30:41.727Z,31.80
2018-01-18T16:33:10.072Z,31.80
2018-01-18T16:35:38.899Z,31.70
2018-01-18T16:38:06.945Z,31.70
2018-01-18T16:40:35.793Z,31.70
2018-01-18T16:43:03.864Z,31.70
2018-01-18T16:45:31.917Z,31.70
2018-01-18T16:47:59.944Z,31.90
2018-01-18T16:50:28.740Z,32.00
2018-01-18T16:52:56.799Z,31.90
2018-01-18T16:55:25.631Z,32.00
2018-01-18T16:57:53.896Z,32.00
2018-01-18T17:00:21.963Z,32.10
2018-01-18T17:02:50.039Z,32.10
2018-01-18T17:05:18.182Z,32.10
2018-01-18T17:07:47.034Z,32.30
2018-01-18T17:10:15.103Z,32.30
2018-01-18T17:12:43.184Z,32.30
2018-01-18T17:15:11.215Z,32.30
2018-01-18T17:17:39.293Z,32.50
2018-01-18T17:20:07.368Z,32.60
2018-01-18T17:22:35.421Z,32.70
2018-01-18T17:25:03.484Z,32.80
2018-01-18T17:27:31.587Z,32.90
2018-01-18T17:29:59.701Z,32.90
2018-01-18T17:32:28.512Z,33.20
2018-01-18T17:34:56.525Z,33.10
2018-01-18T17:37:24.576Z,33.30
2018-01-18T17:39:52.864Z,33.40
2018-01-18T17:42:20.940Z,33.40
2018-01-18T17:44:49.004Z,33.60
2018-01-18T17:47:17.053Z,33.70
2018-01-18T17:49:45.104Z,33.70
2018-01-18T17:52:13.929Z,33.80
2018-01-18T17:54:41.993Z,33.80
2018-01-18T17:57:10.064Z,33.80
2018-01-18T17:59:38.096Z,33.90
2018-01-18T18:02:06.938Z,34.10
2018-01-18T18:04:34.995Z,34.00
2018-01-18T18:07:03.044Z,34.00
2018-01-18T18:09:31.123Z,34.00
2018-01-18T18:11:59.190Z,34.10
2018-01-18T18:14:27.255Z,34.70
2018-01-18T18:16:55.352Z,34.10
2018-01-18T18:19:23.408Z,34.10
2018-01-18T18:21:51.482Z,34.10
2018-01-18T18:24:19.560Z,34.10
2018-01-18T18:26:47.610Z,34.10
2018-01-18T18:29:15.766Z,34.10
2018-01-18T18:31:44.600Z,34.30
2018-01-18T18:34:12.657Z,34.20
2018-01-18T18:36:40.721Z,34.30
2018-01-18T18:39:08.807Z,34.40
2018-01-18T18:41:36.978Z,34.40
2018-01-18T18:44:05.013Z,34.50
2018-01-18T18:46:33.861Z,34.60
2018-01-18T18:49:01.947Z,34.60
2018-01-18T18:51:29.984Z,34.70
2018-01-18T18:53:58.055Z,34.70
2018-01-18T18:56:26.131Z,34.80
2018-01-18T18:58:54.188Z,34.90
2018-01-18T19:01:22.288Z,34.90
2018-01-18T19:03:50.351Z,35.00
2018-01-18T19:06:18.403Z,35.00
2018-01-18T19:08:46.468Z,35.20
2018-01-18T19:11:14.532Z,35.20
2018-01-18T19:13:42.599Z,35.20
2018-01-18T19:16:10.680Z,35.30
2018-01-18T19:18:38.760Z,35.40
2018-01-18T19:21:06.813Z,35.40
2018-01-18T19:23:34.938Z,35.50
2018-01-18T19:26:03.054Z,35.60
2018-01-18T19:28:31.127Z,35.60
2018-01-18T19:30:59.198Z,35.60
2018-01-18T19:33:27.312Z,35.70
2018-01-18T19:35:55.384Z,35.70
2018-01-18T19:38:23.536Z,35.80
2018-01-18T19:40:51.648Z,35.90
2018-01-18T19:43:20.664Z,35.80
2018-01-18T19:45:49.516Z,36.00
2018-01-18T19:48:17.576Z,35.90
2018-01-18T19:50:45.644Z,36.00
2018-01-18T19:53:13.709Z,36.10
2018-01-18T19:55:41.781Z,36.10
2018-01-18T19:58:09.858Z,36.10
2018-01-18T20:00:37.936Z,36.10
2018-01-18T20:03:05.994Z,36.20
2018-01-18T20:05:34.068Z,36.20
2018-01-18T20:08:02.143Z,36.30
2018-01-18T20:10:30.236Z,36.30
2018-01-18T20:12:58.280Z,36.30
2018-01-18T20:15:26.321Z,36.40
2018-01-18T20:17:54.428Z,36.50
2018-01-18T20:20:22.508Z,36.50
2018-01-18T20:22:50.640Z,36.50
2018-01-18T20:25:18.705Z,36.50
2018-01-18T20:27:46.768Z,36.70
2018-01-18T20:30:15.600Z,37.60
2018-01-18T20:32:43.708Z,37.60
2018-01-18T20:35:11.784Z,37.70
2018-01-18T20:37:40.581Z,37.70
2018-01-18T20:40:09.415Z,38.20
2018-01-18T20:42:37.508Z,37.70
2018-01-18T20:45:05.544Z,37.80
2018-01-18T20:47:33.687Z,37.90
2018-01-18T20:50:02.511Z,38.00
2018-01-18T20:52:30.571Z,38.00
2018-01-18T20:54:58.917Z,38.00
2018-01-18T20:57:27.743Z,38.40
2018-01-18T20:59:55.767Z,38.10
2018-01-18T21:02:23.816Z,38.10
2018-01-18T21:04:51.894Z,38.10
2018-01-18T21:07:19.977Z,38.30
2018-01-18T21:09:48.024Z,38.30
2018-01-18T21:12:16.052Z,38.30
2018-01-18T21:14:44.087Z,38.40
2018-01-18T21:17:12.153Z,38.50
2018-01-18T21:19:40.532Z,38.50
2018-01-18T21:22:09.547Z,38.60
2018-01-18T21:24:37.778Z,38.60
2018-01-18T21:27:05.939Z,38.60
2018-01-18T21:29:34.155Z,38.60
2018-01-18T21:32:03.274Z,38.70
2018-01-18T21:34:31.480Z,38.70
2018-01-18T21:36:59.548Z,38.70
2018-01-18T21:39:27.587Z,38.80
2018-01-18T21:41:56.408Z,38.80
2018-01-18T21:44:24.457Z,38.80
2018-01-18T21:46:52.564Z,38.90
2018-01-18T21:49:20.625Z,38.90
2018-01-18T21:51:48.699Z,38.90
2018-01-18T21:54:16.776Z,39.00
2018-01-18T21:56:44.827Z,39.00
2018-01-18T21:59:12.859Z,39.00
2018-01-18T22:01:40.896Z,39.00
2018-01-18T22:04:08.951Z,39.10
2018-01-18T22:06:37.002Z,39.10
2018-01-18T22:09:05.143Z,39.10
2018-01-18T22:11:33.191Z,39.10
2018-01-18T22:14:01.220Z,39.10
2018-01-18T22:16:29.262Z,39.10
2018-01-18T22:18:58.053Z,39.20
2018-01-18T22:21:26.849Z,39.30
2018-01-18T22:23:55.656Z,39.40
2018-01-18T22:26:23.701Z,39.40
2018-01-18T22:28:52.496Z,39.40
2018-01-18T22:31:21.316Z,39.50
2018-01-18T22:33:49.367Z,39.50
2018-01-18T22:36:17.436Z,39.50
2018-01-18T22:38:45.459Z,39.60
2018-01-18T22:41:13.480Z,39.60
2018-01-18T22:43:41.587Z,39.60
2018-01-18T22:46:09.636Z,39.70
2018-01-18T22:48:37.689Z,39.70
2018-01-18T22:51:05.729Z,39.70
2018-01-18T22:53:33.771Z,39.80
2018-01-18T22:56:01.797Z,39.80
2018-01-18T22:58:29.812Z,39.90
2018-01-18T23:00:58.616Z,39.80
2018-01-18T23:03:26.678Z,39.80
2018-01-18T23:05:54.736Z,39.80
2018-01-18T23:08:22.751Z,39.90
2018-01-18T23:10:51.569Z,39.90
2018-01-18T23:13:19.619Z,40.00
2018-01-18T23:15:48.400Z,40.00
2018-01-18T23:18:17.215Z,40.10
2018-01-18T23:20:45.241Z,40.10
2018-01-18T23:23:13.298Z,40.10
2018-01-18T23:25:41.362Z,40.10
2018-01-18T23:28:09.401Z,40.10
2018-01-18T23:30:37.473Z,40.10
2018-01-18T23:33:05.590Z,40.10
2018-01-18T23:35:33.619Z,40.20
2018-01-18T23:38:01.640Z,40.20
2018-01-18T23:40:29.691Z,40.30
2018-01-18T23:42:57.726Z,40.30
2018-01-18T23:45:25.765Z,40.30
2018-01-18T23:47:54.592Z,40.40
2018-01-18T23:50:22.620Z,40.40
2018-01-18T23:52:51.417Z,40.40
2018-01-18T23:55:20.254Z,40.40
2018-01-18T23:57:48.307Z,40.50
